sensor_id;sensor_type;location;lat;lon;timestamp;pressure;altitude;pressure_sealevel;temperature;humidity
3428;BME280;1727;42.624;23.406;2022-09-28T00:02:23;93893.25;;;14.87;100.00
3428;BME280;1727;42.624;23.406;2022-09-28T00:04:49;93891.97;;;14.83;100.00
3428;BME280;1727;42.624;23.406;2022-09-28T00:07:16;93883.31;;;14.90;100.00
3428;BME280;1727;42.624;23.406;2022-09-28T00:09:43;93871.94;;;14.89;100.00
3428;BME280;1727;42.624;23.406;2022-09-28T00:12:10;93876.84;;;14.92;100.00
3428;BME280;1727;42.624;23.406;2022-09-28T00:14:38;93869.75;;;14.93;100.00
3428;BME280;1727;42.624;23.406;2022-09-28T00:17:07;93865.00;;;14.88;100.00
3428;BME280;1727;42.624;23.406;2022-09-28T00:19:34;93863.00;;;14.90;100.00
3428;BME280;1727;42.624;23.406;2022-09-28T00:22:01;93872.03;;;14.96;100.00
3428;BME280;1727;42.624;23.406;2022-09-28T00:24:27;93863.19;;;14.88;100.00
3428;BME280;1727;42.624;23.406;2022-09-28T00:26:56;93868.75;;;14.94;100.00
3428;BME280;1727;42.624;23.406;2022-09-28T00:29:26;93877.66;;;14.93;100.00
3428;BME280;1727;42.624;23.406;2022-09-28T00:31:57;93867.19;;;14.84;100.00
3428;BME280;1727;42.624;23.406;2022-09-28T00:34:27;93867.47;;;14.90;100.00
3428;BME280;1727;42.624;23.406;2022-09-28T00:36:55;93868.56;;;14.80;100.00
3428;BME280;1727;42.624;23.406;2022-09-28T00:39:23;93861.69;;;14.71;100.00
3428;BME280;1727;42.624;23.406;2022-09-28T00:41:50;93856.78;;;14.68;100.00
3428;BME280;1727;42.624;23.406;2022-09-28T00:44:39;93874.41;;;14.76;100.00
3428;BME280;1727;42.624;23.406;2022-09-28T00:47:23;93866.53;;;14.68;100.00
3428;BME280;1727;42.624;23.406;2022-09-28T00:49:55;93864.06;;;14.66;100.00
3428;BME280;1727;42.624;23.406;2022-09-28T00:52:27;93863.06;;;14.67;100.00
3428;BME280;1727;42.624;23.406;2022-09-28T00:54:58;93868.00;;;14.70;100.00
3428;BME280;1727;42.624;23.406;2022-09-28T00:57:28;93863.88;;;14.68;100.00
3428;BME280;1727;42.624;23.406;2022-09-28T00:59:56;93861.78;;;14.63;100.00
3428;BME280;1727;42.624;23.406;2022-09-28T01:02:26;93859.97;;;14.64;100.00
3428;BME280;1727;42.624;23.406;2022-09-28T01:04:54;93869.81;;;14.70;100.00
3428;BME280;1727;42.624;23.406;2022-09-28T01:07:23;93866.72;;;14.66;100.00
3428;BME280;1727;42.624;23.406;2022-09-28T01:09:50;93864.44;;;14.63;100.00
3428;BME280;1727;42.624;23.406;2022-09-28T01:12:18;93869.06;;;14.61;100.00
3428;BME280;1727;42.624;23.406;2022-09-28T01:14:45;93882.56;;;14.66;100.00
3428;BME280;1727;42.624;23.406;2022-09-28T01:17:14;93877.28;;;14.66;100.00
3428;BME280;1727;42.624;23.406;2022-09-28T01:20:02;93881.28;;;14.62;100.00
3428;BME280;1727;42.624;23.406;2022-09-28T01:23:00;93875.81;;;14.64;100.00
3428;BME280;1727;42.624;23.406;2022-09-28T01:25:40;93871.06;;;14.59;100.00
3428;BME280;1727;42.624;23.406;2022-09-28T01:28:13;93862.97;;;14.61;100.00
3428;BME280;1727;42.624;23.406;2022-09-28T01:30:46;93861.78;;;14.40;100.00
3428;BME280;1727;42.624;23.406;2022-09-28T01:33:20;93882.06;;;14.48;100.00
3428;BME280;1727;42.624;23.406;2022-09-28T01:35:51;93892.84;;;14.38;100.00
3428;BME280;1727;42.624;23.406;2022-09-28T01:38:24;93886.44;;;14.10;100.00
3428;BME280;1727;42.624;23.406;2022-09-28T01:40:55;93884.47;;;13.58;100.00
3428;BME280;1727;42.624;23.406;2022-09-28T01:43:25;93885.38;;;13.73;100.00
3428;BME280;1727;42.624;23.406;2022-09-28T01:45:54;93895.03;;;13.81;100.00
3428;BME280;1727;42.624;23.406;2022-09-28T01:48:29;93891.06;;;13.85;100.00
3428;BME280;1727;42.624;23.406;2022-09-28T01:50:59;93890.75;;;13.88;100.00
3428;BME280;1727;42.624;23.406;2022-09-28T01:53:31;93883.50;;;13.82;100.00
3428;BME280;1727;42.624;23.406;2022-09-28T01:56:06;93886.50;;;13.79;100.00
3428;BME280;1727;42.624;23.406;2022-09-28T01:58:37;93887.53;;;13.70;100.00
3428;BME280;1727;42.624;23.406;2022-09-28T02:01:08;93894.09;;;13.74;100.00
3428;BME280;1727;42.624;23.406;2022-09-28T02:03:42;93900.03;;;13.76;100.00
3428;BME280;1727;42.624;23.406;2022-09-28T02:06:16;93896.03;;;13.80;100.00
3428;BME280;1727;42.624;23.406;2022-09-28T02:08:49;93896.50;;;13.83;100.00
3428;BME280;1727;42.624;23.406;2022-09-28T02:11:19;93899.78;;;13.85;100.00
3428;BME280;1727;42.624;23.406;2022-09-28T02:13:49;93900.28;;;13.89;100.00
3428;BME280;1727;42.624;23.406;2022-09-28T02:16:22;93903.22;;;13.94;100.00
3428;BME280;1727;42.624;23.406;2022-09-28T02:18:51;93898.59;;;13.96;100.00
3428;BME280;1727;42.624;23.406;2022-09-28T02:21:24;93902.75;;;13.90;100.00
3428;BME280;1727;42.624;23.406;2022-09-28T02:23:55;93903.44;;;13.84;100.00
3428;BME280;1727;42.624;23.406;2022-09-28T02:26:27;93918.59;;;13.90;100.00
3428;BME280;1727;42.624;23.406;2022-09-28T02:28:57;93899.22;;;13.75;100.00
3428;BME280;1727;42.624;23.406;2022-09-28T02:31:24;93898.16;;;13.53;100.00
3428;BME280;1727;42.624;23.406;2022-09-28T02:33:52;93916.91;;;13.58;100.00
3428;BME280;1727;42.624;23.406;2022-09-28T02:36:21;93903.13;;;13.48;100.00
3428;BME280;1727;42.624;23.406;2022-09-28T02:38:48;93891.06;;;13.23;100.00
3428;BME280;1727;42.624;23.406;2022-09-28T02:41:25;93896.63;;;13.28;100.00
3428;BME280;1727;42.624;23.406;2022-09-28T02:44:02;93891.34;;;13.28;100.00
3428;BME280;1727;42.624;23.406;2022-09-28T02:46:44;93890.91;;;13.00;100.00
3428;BME280;1727;42.624;23.406;2022-09-28T02:49:20;93895.72;;;13.05;100.00
3428;BME280;1727;42.624;23.406;2022-09-28T02:55:09;93901.28;;;13.18;100.00
3428;BME280;1727;42.624;23.406;2022-09-28T02:57:46;93904.69;;;13.26;100.00
3428;BME280;1727;42.624;23.406;2022-09-28T03:00:18;93910.47;;;13.22;100.00
3428;BME280;1727;42.624;23.406;2022-09-28T03:02:50;93911.69;;;13.03;100.00
3428;BME280;1727;42.624;23.406;2022-09-28T03:05:22;93919.72;;;13.10;100.00
3428;BME280;1727;42.624;23.406;2022-09-28T03:07:56;93908.66;;;13.14;100.00
3428;BME280;1727;42.624;23.406;2022-09-28T03:10:29;93922.00;;;13.13;100.00
3428;BME280;1727;42.624;23.406;2022-09-28T03:12:59;93926.31;;;12.97;100.00
3428;BME280;1727;42.624;23.406;2022-09-28T03:15:29;93934.25;;;12.89;100.00
3428;BME280;1727;42.624;23.406;2022-09-28T03:18:12;93929.97;;;12.88;100.00
3428;BME280;1727;42.624;23.406;2022-09-28T03:20:39;93940.00;;;12.93;100.00
3428;BME280;1727;42.624;23.406;2022-09-28T03:23:05;93930.94;;;12.95;100.00
3428;BME280;1727;42.624;23.406;2022-09-28T03:25:32;93932.56;;;13.05;100.00
3428;BME280;1727;42.624;23.406;2022-09-28T03:28:00;93946.88;;;13.10;100.00
3428;BME280;1727;42.624;23.406;2022-09-28T03:30:27;93936.00;;;13.13;100.00
3428;BME280;1727;42.624;23.406;2022-09-28T03:32:57;93951.34;;;12.93;100.00
3428;BME280;1727;42.624;23.406;2022-09-28T03:35:26;93941.63;;;12.94;100.00
3428;BME280;1727;42.624;23.406;2022-09-28T03:37:53;93935.03;;;12.98;100.00
3428;BME280;1727;42.624;23.406;2022-09-28T03:40:21;93949.03;;;12.98;100.00
3428;BME280;1727;42.624;23.406;2022-09-28T03:42:47;93950.38;;;13.02;100.00
3428;BME280;1727;42.624;23.406;2022-09-28T03:45:14;93939.50;;;12.89;100.00
3428;BME280;1727;42.624;23.406;2022-09-28T03:47:44;93958.25;;;13.02;100.00
3428;BME280;1727;42.624;23.406;2022-09-28T03:50:11;93949.53;;;13.02;100.00
3428;BME280;1727;42.624;23.406;2022-09-28T03:52:40;93955.78;;;13.09;100.00
3428;BME280;1727;42.624;23.406;2022-09-28T03:55:07;93955.78;;;13.09;100.00
3428;BME280;1727;42.624;23.406;2022-09-28T03:57:34;93945.25;;;13.09;100.00
3428;BME280;1727;42.624;23.406;2022-09-28T04:00:01;93947.34;;;13.14;100.00
3428;BME280;1727;42.624;23.406;2022-09-28T04:02:30;93945.25;;;13.17;100.00
3428;BME280;1727;42.624;23.406;2022-09-28T04:04:57;93944.88;;;13.28;100.00
3428;BME280;1727;42.624;23.406;2022-09-28T04:07:23;93946.88;;;13.18;100.00
3428;BME280;1727;42.624;23.406;2022-09-28T04:09:52;93944.72;;;13.22;100.00
3428;BME280;1727;42.624;23.406;2022-09-28T04:12:18;93950.31;;;13.27;100.00
3428;BME280;1727;42.624;23.406;2022-09-28T04:14:45;93939.13;;;13.33;100.00
3428;BME280;1727;42.624;23.406;2022-09-28T04:17:12;93939.41;;;13.38;100.00
3428;BME280;1727;42.624;23.406;2022-09-28T04:19:39;93928.22;;;13.36;100.00
3428;BME280;1727;42.624;23.406;2022-09-28T04:22:06;93932.47;;;13.45;100.00
3428;BME280;1727;42.624;23.406;2022-09-28T04:24:33;93932.13;;;13.48;100.00
3428;BME280;1727;42.624;23.406;2022-09-28T04:27:01;93931.78;;;13.51;100.00
3428;BME280;1727;42.624;23.406;2022-09-28T04:29:45;93931.09;;;13.57;100.00
3428;BME280;1727;42.624;23.406;2022-09-28T04:32:12;93930.09;;;13.58;100.00
3428;BME280;1727;42.624;23.406;2022-09-28T04:34:38;93928.78;;;13.62;100.00
3428;BME280;1727;42.624;23.406;2022-09-28T04:37:05;93938.28;;;13.72;100.00
3428;BME280;1727;42.624;23.406;2022-09-28T04:39:32;93930.97;;;13.82;100.00
3428;BME280;1727;42.624;23.406;2022-09-28T04:42:00;93929.63;;;13.86;100.00
3428;BME280;1727;42.624;23.406;2022-09-28T04:44:27;93934.88;;;13.94;100.00
3428;BME280;1727;42.624;23.406;2022-09-28T04:46:54;93934.53;;;13.97;100.00
3428;BME280;1727;42.624;23.406;2022-09-28T04:49:21;93934.16;;;14.00;100.00
3428;BME280;1727;42.624;23.406;2022-09-28T04:51:48;93932.13;;;14.10;100.00
3428;BME280;1727;42.624;23.406;2022-09-28T04:54:15;93941.97;;;14.16;100.00
3428;BME280;1727;42.624;23.406;2022-09-28T04:56:42;93923.69;;;14.15;100.00
3428;BME280;1727;42.624;23.406;2022-09-28T04:59:10;93925.91;;;14.03;100.00
3428;BME280;1727;42.624;23.406;2022-09-28T05:01:38;93945.09;;;14.20;100.00
3428;BME280;1727;42.624;23.406;2022-09-28T05:04:04;93943.88;;;14.31;100.00
3428;BME280;1727;42.624;23.406;2022-09-28T05:06:31;93924.81;;;14.20;100.00
3428;BME280;1727;42.624;23.406;2022-09-28T05:08:58;93909.44;;;14.24;100.00
3428;BME280;1727;42.624;23.406;2022-09-28T05:11:25;93924.97;;;14.42;100.00
3428;BME280;1727;42.624;23.406;2022-09-28T05:13:52;93943.25;;;14.51;100.00
3428;BME280;1727;42.624;23.406;2022-09-28T05:16:20;93943.81;;;14.62;100.00
3428;BME280;1727;42.624;23.406;2022-09-28T05:18:53;93945.22;;;14.72;100.00
3428;BME280;1727;42.624;23.406;2022-09-28T05:21:20;93946.59;;;15.35;100.00
3428;BME280;1727;42.624;23.406;2022-09-28T05:23:49;93959.16;;;16.28;100.00
3428;BME280;1727;42.624;23.406;2022-09-28T05:26:16;93961.47;;;16.74;100.00
3428;BME280;1727;42.624;23.406;2022-09-28T05:28:43;93962.22;;;17.45;97.67
3428;BME280;1727;42.624;23.406;2022-09-28T05:31:10;93965.81;;;18.07;91.48
3428;BME280;1727;42.624;23.406;2022-09-28T05:33:38;93976.81;;;18.51;89.42
3428;BME280;1727;42.624;23.406;2022-09-28T05:36:07;93971.38;;;18.99;84.59
3428;BME280;1727;42.624;23.406;2022-09-28T05:38:35;93970.84;;;18.49;85.83
3428;BME280;1727;42.624;23.406;2022-09-28T05:41:02;93975.31;;;18.36;85.93
3428;BME280;1727;42.624;23.406;2022-09-28T05:43:29;93965.34;;;17.90;86.77
3428;BME280;1727;42.624;23.406;2022-09-28T05:45:57;93985.06;;;18.15;88.36
3428;BME280;1727;42.624;23.406;2022-09-28T05:48:24;93967.78;;;18.39;87.08
3428;BME280;1727;42.624;23.406;2022-09-28T05:50:55;93980.78;;;18.88;85.04
3428;BME280;1727;42.624;23.406;2022-09-28T05:53:24;93983.66;;;18.87;84.16
3428;BME280;1727;42.624;23.406;2022-09-28T05:55:55;93968.13;;;19.10;82.65
3428;BME280;1727;42.624;23.406;2022-09-28T05:58:22;93976.88;;;19.50;82.84
3428;BME280;1727;42.624;23.406;2022-09-28T06:00:53;93965.44;;;19.70;80.10
3428;BME280;1727;42.624;23.406;2022-09-28T06:03:20;93968.03;;;19.83;80.06
3428;BME280;1727;42.624;23.406;2022-09-28T06:05:47;93990.69;;;20.12;79.56
3428;BME280;1727;42.624;23.406;2022-09-28T06:08:15;93981.78;;;20.45;77.67
3428;BME280;1727;42.624;23.406;2022-09-28T06:10:42;93990.66;;;20.70;77.09
3428;BME280;1727;42.624;23.406;2022-09-28T06:13:09;93978.16;;;21.02;76.71
3428;BME280;1727;42.624;23.406;2022-09-28T06:15:36;93978.69;;;20.86;74.00
3428;BME280;1727;42.624;23.406;2022-09-28T06:18:04;93990.19;;;20.80;75.66
3428;BME280;1727;42.624;23.406;2022-09-28T06:20:33;93984.59;;;20.56;75.39
3428;BME280;1727;42.624;23.406;2022-09-28T06:23:00;93988.84;;;20.13;76.97
3428;BME280;1727;42.624;23.406;2022-09-28T06:25:29;93977.69;;;19.77;79.58
3428;BME280;1727;42.624;23.406;2022-09-28T06:27:57;93983.66;;;19.53;81.00
3428;BME280;1727;42.624;23.406;2022-09-28T06:30:25;93984.06;;;18.97;83.01
3428;BME280;1727;42.624;23.406;2022-09-28T06:32:53;93995.09;;;18.81;85.13
3428;BME280;1727;42.624;23.406;2022-09-28T06:35:21;93971.44;;;18.38;87.16
3428;BME280;1727;42.624;23.406;2022-09-28T06:37:49;93983.38;;;18.55;89.38
3428;BME280;1727;42.624;23.406;2022-09-28T06:40:16;93990.75;;;18.67;88.91
3428;BME280;1727;42.624;23.406;2022-09-28T06:42:53;93997.66;;;18.54;84.96
3428;BME280;1727;42.624;23.406;2022-09-28T06:45:20;93985.97;;;18.42;86.60
3428;BME280;1727;42.624;23.406;2022-09-28T06:47:51;93989.69;;;18.00;88.13
3428;BME280;1727;42.624;23.406;2022-09-28T06:50:18;93983.88;;;17.49;90.77
3428;BME280;1727;42.624;23.406;2022-09-28T06:52:48;93982.09;;;17.28;93.05
3428;BME280;1727;42.624;23.406;2022-09-28T06:55:15;93989.22;;;17.27;94.32
3428;BME280;1727;42.624;23.406;2022-09-28T06:57:42;93993.47;;;17.50;94.54
3428;BME280;1727;42.624;23.406;2022-09-28T07:00:12;93998.81;;;17.28;92.99
3428;BME280;1727;42.624;23.406;2022-09-28T07:02:39;94006.25;;;17.40;93.33
3428;BME280;1727;42.624;23.406;2022-09-28T07:05:07;94006.72;;;17.50;93.16
3428;BME280;1727;42.624;23.406;2022-09-28T07:07:34;93996.75;;;17.86;92.53
3428;BME280;1727;42.624;23.406;2022-09-28T07:10:01;93997.41;;;18.36;92.24
3428;BME280;1727;42.624;23.406;2022-09-28T07:12:28;93992.19;;;18.63;87.60
3428;BME280;1727;42.624;23.406;2022-09-28T07:14:56;93988.97;;;18.87;88.31
3428;BME280;1727;42.624;23.406;2022-09-28T07:17:24;93999.22;;;19.23;88.19
3428;BME280;1727;42.624;23.406;2022-09-28T07:19:51;93999.63;;;19.13;85.88
3428;BME280;1727;42.624;23.406;2022-09-28T07:22:18;94000.03;;;19.17;86.37
3428;BME280;1727;42.624;23.406;2022-09-28T07:24:46;94004.94;;;19.20;86.16
3428;BME280;1727;42.624;23.406;2022-09-28T07:27:13;93993.47;;;19.00;90.51
3428;BME280;1727;42.624;23.406;2022-09-28T07:29:40;93984.50;;;19.14;89.22
3428;BME280;1727;42.624;23.406;2022-09-28T07:32:07;93993.69;;;19.25;89.31
3428;BME280;1727;42.624;23.406;2022-09-28T07:34:55;93994.69;;;19.50;89.03
3428;BME280;1727;42.624;23.406;2022-09-28T07:37:22;94001.41;;;19.92;87.51
3428;BME280;1727;42.624;23.406;2022-09-28T07:39:50;93995.88;;;19.87;84.22
3428;BME280;1727;42.624;23.406;2022-09-28T07:42:35;94014.16;;;19.64;84.67
3428;BME280;1727;42.624;23.406;2022-09-28T07:45:03;94011.09;;;19.47;83.75
3428;BME280;1727;42.624;23.406;2022-09-28T07:47:31;94011.50;;;19.44;84.16
3428;BME280;1727;42.624;23.406;2022-09-28T07:49:59;93997.34;;;19.83;85.83
3428;BME280;1727;42.624;23.406;2022-09-28T07:52:26;94009.03;;;19.69;84.18
3428;BME280;1727;42.624;23.406;2022-09-28T07:54:53;94011.56;;;20.22;84.46
3428;BME280;1727;42.624;23.406;2022-09-28T07:57:21;94031.56;;;20.51;81.55
3428;BME280;1727;42.624;23.406;2022-09-28T07:59:48;94026.53;;;20.74;78.85
3428;BME280;1727;42.624;23.406;2022-09-28T08:02:18;94033.28;;;20.83;77.08
3428;BME280;1727;42.624;23.406;2022-09-28T08:04:45;94033.19;;;20.96;74.02
3428;BME280;1727;42.624;23.406;2022-09-28T08:07:14;94033.41;;;20.57;74.49
3428;BME280;1727;42.624;23.406;2022-09-28T08:09:41;94016.22;;;20.39;77.93
3428;BME280;1727;42.624;23.406;2022-09-28T08:12:08;94027.72;;;20.40;78.94
3428;BME280;1727;42.624;23.406;2022-09-28T08:14:35;94033.44;;;20.37;79.95
3428;BME280;1727;42.624;23.406;2022-09-28T08:17:03;94028.72;;;20.46;80.28
3428;BME280;1727;42.624;23.406;2022-09-28T08:19:31;94027.31;;;20.23;79.63
3428;BME280;1727;42.624;23.406;2022-09-28T08:22:13;94023.22;;;20.40;79.98
3428;BME280;1727;42.624;23.406;2022-09-28T08:24:40;94024.00;;;20.48;80.41
3428;BME280;1727;42.624;23.406;2022-09-28T08:27:07;94022.16;;;20.41;81.09
3428;BME280;1727;42.624;23.406;2022-09-28T08:29:34;94031.00;;;20.35;79.85
3428;BME280;1727;42.624;23.406;2022-09-28T08:32:01;94025.75;;;20.09;79.56
3428;BME280;1727;42.624;23.406;2022-09-28T08:34:28;94028.66;;;20.01;81.47
3428;BME280;1727;42.624;23.406;2022-09-28T08:36:55;94024.53;;;19.92;80.25
3428;BME280;1727;42.624;23.406;2022-09-28T08:39:24;94024.75;;;19.90;78.35
3428;BME280;1727;42.624;23.406;2022-09-28T08:42:01;94016.63;;;19.72;79.88
3428;BME280;1727;42.624;23.406;2022-09-28T08:44:38;94006.56;;;19.80;81.80
3428;BME280;1727;42.624;23.406;2022-09-28T08:47:11;94003.50;;;19.77;82.38
3428;BME280;1727;42.624;23.406;2022-09-28T08:50:00;94004.09;;;19.79;82.42
3428;BME280;1727;42.624;23.406;2022-09-28T08:52:32;94003.91;;;19.74;81.05
3428;BME280;1727;42.624;23.406;2022-09-28T08:55:06;94003.88;;;19.87;82.52
3428;BME280;1727;42.624;23.406;2022-09-28T08:57:40;93997.94;;;19.85;82.12
3428;BME280;1727;42.624;23.406;2022-09-28T09:00:16;94006.53;;;19.87;81.72
3428;BME280;1727;42.624;23.406;2022-09-28T09:02:45;93995.91;;;19.80;81.06
3428;BME280;1727;42.624;23.406;2022-09-28T09:05:14;93999.63;;;19.53;80.49
3428;BME280;1727;42.624;23.406;2022-09-28T09:07:58;93991.25;;;19.56;80.65
3428;BME280;1727;42.624;23.406;2022-09-28T09:10:40;93991.22;;;19.49;83.03
3428;BME280;1727;42.624;23.406;2022-09-28T09:13:28;93989.59;;;19.42;84.57
3428;BME280;1727;42.624;23.406;2022-09-28T09:16:03;93987.94;;;19.34;83.25
3428;BME280;1727;42.624;23.406;2022-09-28T09:18:36;93995.09;;;19.34;84.42
3428;BME280;1727;42.624;23.406;2022-09-28T09:21:13;93995.72;;;19.36;83.76
3428;BME280;1727;42.624;23.406;2022-09-28T09:23:48;93990.22;;;19.37;84.59
3428;BME280;1727;42.624;23.406;2022-09-28T09:26:21;93982.81;;;19.33;84.63
3428;BME280;1727;42.624;23.406;2022-09-28T09:29:02;93991.00;;;19.51;85.96
3428;BME280;1727;42.624;23.406;2022-09-28T09:31:38;93978.53;;;19.71;86.58
3428;BME280;1727;42.624;23.406;2022-09-28T09:34:18;93984.19;;;19.95;86.23
3428;BME280;1727;42.624;23.406;2022-09-28T09:36:58;93987.19;;;20.18;82.14
3428;BME280;1727;42.624;23.406;2022-09-28T09:39:39;93988.56;;;20.40;81.87
3428;BME280;1727;42.624;23.406;2022-09-28T09:42:32;93982.53;;;20.58;78.74
3428;BME280;1727;42.624;23.406;2022-09-28T09:45:17;93978.38;;;20.69;78.32
3428;BME280;1727;42.624;23.406;2022-09-28T09:47:53;93971.72;;;20.85;78.86
3428;BME280;1727;42.624;23.406;2022-09-28T09:50:26;93965.69;;;20.96;76.31
3428;BME280;1727;42.624;23.406;2022-09-28T09:52:59;93970.38;;;21.00;73.78
3428;BME280;1727;42.624;23.406;2022-09-28T09:55:34;93962.72;;;21.11;74.25
3428;BME280;1727;42.624;23.406;2022-09-28T09:58:10;93969.25;;;21.15;72.95
3428;BME280;1727;42.624;23.406;2022-09-28T10:00:43;93954.19;;;21.27;74.27
3428;BME280;1727;42.624;23.406;2022-09-28T10:03:18;93965.72;;;21.46;72.64
3428;BME280;1727;42.624;23.406;2022-09-28T10:05:50;93955.94;;;21.58;72.86
3428;BME280;1727;42.624;23.406;2022-09-28T10:08:21;93955.84;;;21.71;72.20
3428;BME280;1727;42.624;23.406;2022-09-28T10:10:53;93955.53;;;21.79;70.12
3428;BME280;1727;42.624;23.406;2022-09-28T10:13:23;93963.47;;;21.86;69.75
3428;BME280;1727;42.624;23.406;2022-09-28T10:15:50;93962.72;;;21.79;71.29
3428;BME280;1727;42.624;23.406;2022-09-28T10:18:19;93959.13;;;21.67;68.72
3428;BME280;1727;42.624;23.406;2022-09-28T10:20:46;93963.59;;;21.54;66.25
3428;BME280;1727;42.624;23.406;2022-09-28T10:23:18;93954.91;;;21.41;68.72
3428;BME280;1727;42.624;23.406;2022-09-28T10:25:49;93954.72;;;21.36;68.66
3428;BME280;1727;42.624;23.406;2022-09-28T10:28:24;93961.53;;;21.31;69.61
3428;BME280;1727;42.624;23.406;2022-09-28T10:30:55;93953.84;;;21.17;67.79
3428;BME280;1727;42.624;23.406;2022-09-28T10:33:29;93949.31;;;21.17;68.48
3428;BME280;1727;42.624;23.406;2022-09-28T10:35:58;93944.75;;;21.24;69.76
3428;BME280;1727;42.624;23.406;2022-09-28T10:38:26;93934.34;;;21.41;70.44
3428;BME280;1727;42.624;23.406;2022-09-28T10:40:54;93930.88;;;21.59;69.88
3428;BME280;1727;42.624;23.406;2022-09-28T10:43:26;93934.88;;;21.68;67.73
3428;BME280;1727;42.624;23.406;2022-09-28T10:46:04;93918.59;;;21.76;66.35
3428;BME280;1727;42.624;23.406;2022-09-28T10:48:47;93937.13;;;21.89;65.66
3428;BME280;1727;42.624;23.406;2022-09-28T10:51:15;93922.66;;;21.97;65.79
3428;BME280;1727;42.624;23.406;2022-09-28T10:53:57;93929.28;;;22.13;62.44
3428;BME280;1727;42.624;23.406;2022-09-28T10:56:27;93927.72;;;22.23;63.69
3428;BME280;1727;42.624;23.406;2022-09-28T10:58:57;93917.44;;;22.39;62.15
3428;BME280;1727;42.624;23.406;2022-09-28T11:01:29;93923.06;;;22.49;59.69
3428;BME280;1727;42.624;23.406;2022-09-28T11:03:59;93913.81;;;22.63;63.23
3428;BME280;1727;42.624;23.406;2022-09-28T11:06:28;93902.69;;;22.78;60.31
3428;BME280;1727;42.624;23.406;2022-09-28T11:08:57;93903.22;;;22.86;58.04
3428;BME280;1727;42.624;23.406;2022-09-28T11:11:26;93905.78;;;22.93;59.73
3428;BME280;1727;42.624;23.406;2022-09-28T11:13:58;93901.03;;;23.07;58.56
3428;BME280;1727;42.624;23.406;2022-09-28T11:16:27;93889.75;;;23.05;57.83
3428;BME280;1727;42.624;23.406;2022-09-28T11:18:55;93893.72;;;23.14;56.67
3428;BME280;1727;42.624;23.406;2022-09-28T11:21:25;93877.78;;;23.19;55.96
3428;BME280;1727;42.624;23.406;2022-09-28T11:23:57;93882.53;;;23.29;56.09
3428;BME280;1727;42.624;23.406;2022-09-28T11:26:26;93885.34;;;23.34;55.66
3428;BME280;1727;42.624;23.406;2022-09-28T11:28:53;93876.50;;;23.45;55.38
3428;BME280;1727;42.624;23.406;2022-09-28T11:31:27;93877.88;;;23.36;53.17
3428;BME280;1727;42.624;23.406;2022-09-28T11:34:06;93863.34;;;23.43;53.55
3428;BME280;1727;42.624;23.406;2022-09-28T11:37:04;93860.44;;;23.45;53.43
3428;BME280;1727;42.624;23.406;2022-09-28T11:39:40;93860.53;;;23.50;54.69
3428;BME280;1727;42.624;23.406;2022-09-28T11:42:19;93851.22;;;23.53;53.55
3428;BME280;1727;42.624;23.406;2022-09-28T11:44:54;93852.03;;;23.53;53.23
3428;BME280;1727;42.624;23.406;2022-09-28T11:47:44;93867.75;;;23.49;52.85
3428;BME280;1727;42.624;23.406;2022-09-28T11:50:22;93864.03;;;23.39;52.67
3428;BME280;1727;42.624;23.406;2022-09-28T11:52:57;93863.00;;;23.28;52.06
3428;BME280;1727;42.624;23.406;2022-09-28T11:55:31;93851.34;;;23.11;54.09
3428;BME280;1727;42.624;23.406;2022-09-28T11:58:02;93858.09;;;23.25;53.58
3428;BME280;1727;42.624;23.406;2022-09-28T12:00:33;93869.03;;;23.35;51.65
3428;BME280;1727;42.624;23.406;2022-09-28T12:03:06;93861.72;;;23.42;52.55
3428;BME280;1727;42.624;23.406;2022-09-28T12:05:39;93857.19;;;23.43;51.94
3428;BME280;1727;42.624;23.406;2022-09-28T12:08:12;93855.56;;;23.42;52.86
3428;BME280;1727;42.624;23.406;2022-09-28T12:10:44;93849.34;;;23.41;51.73
3428;BME280;1727;42.624;23.406;2022-09-28T12:13:18;93839.34;;;23.48;51.68
3428;BME280;1727;42.624;23.406;2022-09-28T12:15:51;93838.53;;;23.48;50.39
3428;BME280;1727;42.624;23.406;2022-09-28T12:18:25;93844.22;;;23.52;51.59
3428;BME280;1727;42.624;23.406;2022-09-28T12:21:02;93842.97;;;23.42;51.06
3428;BME280;1727;42.624;23.406;2022-09-28T12:23:33;93844.13;;;23.46;52.14
3428;BME280;1727;42.624;23.406;2022-09-28T12:26:03;93845.88;;;23.53;53.34
3428;BME280;1727;42.624;23.406;2022-09-28T12:28:34;93845.88;;;23.53;53.79
3428;BME280;1727;42.624;23.406;2022-09-28T12:31:11;93842.94;;;23.54;51.83
3428;BME280;1727;42.624;23.406;2022-09-28T12:33:45;93852.03;;;23.53;53.99
3428;BME280;1727;42.624;23.406;2022-09-28T12:36:21;93850.06;;;23.48;53.60
3428;BME280;1727;42.624;23.406;2022-09-28T12:39:15;93844.13;;;23.46;51.40
3428;BME280;1727;42.624;23.406;2022-09-28T12:41:55;93843.56;;;23.44;53.06
3428;BME280;1727;42.624;23.406;2022-09-28T12:44:42;93850.19;;;23.42;54.91
3428;BME280;1727;42.624;23.406;2022-09-28T12:47:27;93844.00;;;23.41;53.54
3428;BME280;1727;42.624;23.406;2022-09-28T12:50:08;93845.50;;;23.37;52.97
3428;BME280;1727;42.624;23.406;2022-09-28T12:52:43;93849.94;;;23.32;50.63
3428;BME280;1727;42.624;23.406;2022-09-28T12:55:21;93844.59;;;23.32;50.29
3428;BME280;1727;42.624;23.406;2022-09-28T12:57:58;93848.31;;;23.31;50.59
3428;BME280;1727;42.624;23.406;2022-09-28T13:00:30;93841.22;;;23.36;51.63
3428;BME280;1727;42.624;23.406;2022-09-28T13:06:34;93840.63;;;23.46;53.59
3428;BME280;1727;42.624;23.406;2022-09-28T13:09:19;93831.91;;;23.51;55.43
3428;BME280;1727;42.624;23.406;2022-09-28T13:12:00;93836.44;;;23.50;52.94
3428;BME280;1727;42.624;23.406;2022-09-28T13:17:49;93845.88;;;23.53;52.07
3428;BME280;1727;42.624;23.406;2022-09-28T13:20:31;93854.94;;;23.52;54.42
3428;BME280;1727;42.624;23.406;2022-09-28T13:23:11;93848.34;;;23.42;53.16
3428;BME280;1727;42.624;23.406;2022-09-28T13:25:43;93852.50;;;23.38;52.10
3428;BME280;1727;42.624;23.406;2022-09-28T13:28:14;93851.69;;;23.26;51.93
3428;BME280;1727;42.624;23.406;2022-09-28T13:30:47;93845.66;;;23.19;51.49
3428;BME280;1727;42.624;23.406;2022-09-28T13:33:20;93837.06;;;23.17;51.41
3428;BME280;1727;42.624;23.406;2022-09-28T13:35:50;93832.63;;;23.23;51.08
3428;BME280;1727;42.624;23.406;2022-09-28T13:38:43;93842.72;;;23.32;51.04
3428;BME280;1727;42.624;23.406;2022-09-28T13:41:18;93847.63;;;23.47;53.03